Time;durP1;ratioP1;P1;durP2;ratioP2;P2;SDS_P1;SDS_P2;PMS_P1;PMS_P2;Temp;Humidity;BMP_temperature;BMP_pressure;BME280_temperature;BME280_humidity;BME280_pressure;Samples;Min_cycle;Max_cycle;Signal;HPM_P1;HPM_P2
2023/05/22 04:38:59;;;;;;;24.92;15.80;;;;;;;12.06;95.37;96255.03;2086674;27;20547;-58
2023/05/22 04:40:05;;;;;;;24.02;15.43;;;;;;;12.16;95.42;96255.31;2082781;28;20208;-58
2023/05/22 06:42:24;;;;;;;26.83;13.90;;;;;;;17.92;77.70;96284.69;2092065;28;21625;-56
2023/05/22 06:44:41;;;;;;;22.23;13.05;;;;;;;18.36;76.43;96288.22;2083265;28;20553;-56
2023/05/22 06:46:55;;;;;;;31.70;11.65;;;;;;;18.41;76.01;96280.75;2099323;27;20589;-56
2023/05/22 06:49:18;;;;;;;29.92;13.25;;;;;;;18.83;75.95;96281.75;2081171;28;21107;-57
2023/05/22 06:50:20;;;;;;;32.67;12.35;;;;;;;18.90;74.47;96280.31;2078884;28;20204;-56
2023/05/22 06:52:38;;;;;;;22.50;12.18;;;;;;;19.16;73.55;96264.88;2100543;27;20558;-57
2023/05/22 06:53:40;;;;;;;47.13;11.30;;;;;;;19.45;73.04;96287.97;2095432;28;20226;-57
2023/05/22 06:54:42;;;;;;;32.35;12.60;;;;;;;19.54;72.13;96286.34;2081994;28;20196;-56
2023/05/22 06:55:44;;;;;;;30.20;10.90;;;;;;;19.69;70.48;96292.97;2081013;28;20196;-57
2023/05/22 06:56:46;;;;;;;20.90;10.68;;;;;;;19.55;70.03;96275.66;2082082;28;20292;-57
2023/05/22 06:57:47;;;;;;;19.33;11.32;;;;;;;19.75;71.30;96289.75;2081521;28;20205;-57
2023/05/22 06:58:49;;;;;;;21.52;11.48;;;;;;;19.86;71.71;96296.00;2080658;28;20759;-57
2023/05/22 06:59:50;;;;;;;27.38;10.65;;;;;;;19.65;70.97;96301.31;2073968;28;20201;-57
2023/05/22 07:00:53;;;;;;;25.50;12.18;;;;;;;19.79;71.55;96302.75;2074099;28;20202;-57
2023/05/22 07:01:54;;;;;;;21.90;10.30;;;;;;;19.85;70.18;96296.97;2073891;28;20229;-56
2023/05/22 07:02:56;;;;;;;22.23;10.48;;;;;;;20.13;70.48;96292.69;2074108;28;20717;-57
2023/05/22 07:04:03;;;;;;;28.63;11.02;;;;;;;20.37;69.86;96294.97;2073272;28;20225;-57
2023/05/22 07:05:05;;;;;;;22.67;11.25;;;;;;;20.27;67.45;96277.38;2073144;28;20584;-57
2023/05/22 07:06:07;;;;;;;18.60;11.10;;;;;;;20.48;67.15;96304.63;2074440;28;20283;-56
2023/05/22 07:07:10;;;;;;;18.25;9.30;;;;;;;20.46;67.17;96295.13;2070335;28;20225;-57
2023/05/22 07:08:11;;;;;;;19.42;11.10;;;;;;;20.06;67.40;96300.38;2070703;28;20237;-57
2023/05/22 07:09:14;;;;;;;15.50;11.20;;;;;;;20.23;67.38;96303.31;2069790;28;20230;-56
2023/05/22 07:10:15;;;;;;;15.40;10.10;;;;;;;20.68;66.75;96304.59;2071506;28;20206;-57
2023/05/22 07:11:17;;;;;;;15.63;9.85;;;;;;;20.61;65.33;96301.69;2072744;28;20212;-57
2023/05/22 07:12:19;;;;;;;23.23;9.75;;;;;;;20.69;65.01;96303.63;2073994;28;20326;-56
2023/05/22 07:13:21;;;;;;;14.65;10.05;;;;;;;20.62;65.91;96308.66;2073368;28;20201;-57
2023/05/22 07:14:23;;;;;;;16.40;9.18;;;;;;;20.43;66.77;96300.69;2071660;28;20263;-56
2023/05/22 07:15:24;;;;;;;19.27;9.85;;;;;;;20.52;67.15;96306.00;2074065;28;20198;-56
2023/05/22 07:16:26;;;;;;;15.75;9.80;;;;;;;20.72;65.63;96298.06;2073594;28;20208;-56
2023/05/22 07:17:28;;;;;;;21.55;10.32;;;;;;;20.73;66.22;96305.06;2073570;28;20271;-57
2023/05/22 07:18:30;;;;;;;16.02;10.38;;;;;;;20.84;65.78;96312.88;2072717;28;20252;-56
2023/05/22 07:19:31;;;;;;;13.50;9.77;;;;;;;21.29;64.74;96300.81;2073430;28;20229;-57
2023/05/22 07:20:33;;;;;;;15.27;9.73;;;;;;;21.03;65.38;96301.41;2074431;28;20284;-56
2023/05/22 07:21:34;;;;;;;15.02;10.00;;;;;;;20.37;65.61;96300.25;2073664;28;20233;-57
2023/05/22 07:22:37;;;;;;;18.20;11.63;;;;;;;20.31;66.22;96306.13;2074076;28;20684;-57
2023/05/22 07:23:38;;;;;;;21.77;10.48;;;;;;;20.64;66.31;96312.00;2069727;28;20658;-57
2023/05/22 07:24:40;;;;;;;15.15;10.45;;;;;;;20.79;65.19;96316.94;2071130;28;20591;-57
2023/05/22 07:25:42;;;;;;;20.55;9.68;;;;;;;20.80;65.40;96318.63;2073348;28;20220;-56
2023/05/22 07:26:45;;;;;;;13.98;9.57;;;;;;;20.91;64.77;96309.66;2074001;28;20197;-56
2023/05/22 07:27:47;;;;;;;19.17;10.48;;;;;;;20.97;65.50;96311.75;2070280;28;20831;-56
2023/05/22 07:28:49;;;;;;;15.32;9.93;;;;;;;21.09;66.47;96309.78;2070260;28;20194;-57
2023/05/22 07:29:51;;;;;;;20.33;10.75;;;;;;;21.27;64.58;96312.53;2074643;28;20220;-56
2023/05/22 07:30:52;;;;;;;18.33;10.43;;;;;;;21.03;65.48;96304.06;2077078;28;20221;-56
2023/05/22 07:31:54;;;;;;;16.98;10.43;;;;;;;21.12;65.02;96317.47;2077187;28;20209;-56
2023/05/22 07:32:55;;;;;;;15.13;9.82;;;;;;;20.99;65.34;96315.94;2073273;28;20603;-56
2023/05/22 07:33:57;;;;;;;21.73;10.20;;;;;;;21.20;65.21;96315.78;2073718;28;20233;-57
2023/05/22 07:34:58;;;;;;;20.17;10.80;;;;;;;20.88;64.35;96316.91;2070142;28;20206;-57
2023/05/22 07:36:00;;;;;;;14.75;10.70;;;;;;;20.82;64.50;96324.59;2073395;28;20229;-57
2023/05/22 07:37:10;;;;;;;19.30;10.02;;;;;;;21.00;63.73;96307.00;2073955;28;20256;-57
2023/05/22 07:38:11;;;;;;;18.55;10.05;;;;;;;21.04;64.28;96302.25;2080812;28;20291;-57
2023/05/22 07:39:13;;;;;;;16.60;9.98;;;;;;;21.12;64.63;96323.59;2079880;28;20228;-57
2023/05/22 07:40:14;;;;;;;13.52;10.20;;;;;;;21.23;64.40;96319.97;2071811;28;20198;-57
2023/05/22 07:41:16;;;;;;;17.38;10.60;;;;;;;21.21;64.61;96319.25;2074055;28;20197;-57
2023/05/22 07:42:18;;;;;;;16.98;10.88;;;;;;;21.40;63.27;96321.03;2074412;28;20206;-57
2023/05/22 07:43:20;;;;;;;14.57;10.32;;;;;;;21.14;64.68;96320.78;2071795;28;20260;-57
2023/05/22 07:44:21;;;;;;;15.30;11.10;;;;;;;21.33;63.75;96318.13;2072217;28;20222;-57
2023/05/22 07:45:23;;;;;;;14.27;9.57;;;;;;;21.43;62.87;96319.91;2072313;28;20267;-57
2023/05/22 07:46:24;;;;;;;14.20;9.60;;;;;;;21.41;63.10;96314.75;2073001;28;20201;-57
2023/05/22 07:47:26;;;;;;;15.68;9.20;;;;;;;21.66;63.65;96312.44;2072374;28;20684;-57
2023/05/22 07:48:28;;;;;;;11.98;9.85;;;;;;;21.97;62.69;96318.31;2072817;28;20652;-57
2023/05/22 07:49:29;;;;;;;15.48;10.43;;;;;;;22.23;61.41;96317.59;2072002;28;20225;-57
2023/05/22 07:50:32;;;;;;;15.40;9.63;;;;;;;22.55;60.62;96320.78;2074034;28;20623;-57
2023/05/22 07:51:34;;;;;;;14.45;9.43;;;;;;;22.92;60.32;96314.47;2071410;28;20201;-57
2023/05/22 07:52:35;;;;;;;15.95;9.65;;;;;;;22.86;60.40;96315.94;2072076;28;20689;-57
2023/05/22 07:53:37;;;;;;;13.65;9.27;;;;;;;22.61;59.75;96317.53;2073544;28;20260;-57
2023/05/22 07:54:38;;;;;;;16.75;10.77;;;;;;;22.47;59.87;96322.41;2073015;28;20202;-58
2023/05/22 07:55:42;;;;;;;14.43;9.30;;;;;;;22.49;59.71;96317.75;2072070;28;20225;-57
2023/05/22 07:56:44;;;;;;;11.85;9.27;;;;;;;22.70;57.24;96315.78;2071564;28;20705;-57
2023/05/22 07:57:46;;;;;;;18.02;11.00;;;;;;;22.51;58.54;96320.25;2071964;28;20197;-57
2023/05/22 07:58:47;;;;;;;15.20;10.23;;;;;;;22.30;59.66;96320.53;2074169;28;20243;-57
2023/05/22 07:59:49;;;;;;;15.18;9.93;;;;;;;22.12;60.53;96320.50;2074932;28;20193;-57
2023/05/22 08:00:51;;;;;;;15.23;9.75;;;;;;;21.95;60.70;96325.63;2074294;28;20707;-57
2023/05/22 08:01:53;;;;;;;15.02;8.93;;;;;;;22.05;61.20;96324.72;2074551;28;20193;-57
2023/05/22 08:02:55;;;;;;;12.98;9.90;;;;;;;21.96;60.07;96329.09;2072979;28;20198;-57
2023/05/22 08:03:57;;;;;;;12.10;9.65;;;;;;;22.01;60.74;96329.50;2064029;28;20313;-57
2023/05/22 08:04:59;;;;;;;30.02;10.48;;;;;;;21.89;61.27;96322.69;2064863;28;20210;-57
2023/05/22 08:06:02;;;;;;;17.30;10.30;;;;;;;21.55;60.44;96326.75;2067197;28;20229;-57
2023/05/22 08:07:04;;;;;;;14.93;10.23;;;;;;;21.61;60.52;96331.50;2067912;28;20226;-57
2023/05/22 08:08:05;;;;;;;19.73;10.23;;;;;;;21.60;60.95;96332.47;2068218;28;20233;-57
2023/05/22 08:09:07;;;;;;;15.80;10.48;;;;;;;21.64;60.58;96328.53;2063499;28;20238;-57
2023/05/22 08:10:14;;;;;;;17.52;10.10;;;;;;;21.71;60.97;96333.25;2066318;28;20718;-57
2023/05/22 08:11:15;;;;;;;20.23;10.10;;;;;;;21.94;60.92;96325.75;2071153;28;20204;-59
2023/05/22 08:12:16;;;;;;;13.55;9.48;;;;;;;21.98;60.27;96335.13;2065545;28;20221;-59
2023/05/22 08:13:18;;;;;;;13.98;8.95;;;;;;;22.15;61.77;96331.66;2066297;28;20237;-59
2023/05/22 08:14:21;;;;;;;12.63;9.35;;;;;;;22.31;61.15;96335.50;2066191;28;20228;-59
2023/05/22 08:15:22;;;;;;;14.32;8.95;;;;;;;22.28;60.52;96331.31;2069371;28;20198;-58
2023/05/22 08:16:24;;;;;;;14.50;9.25;;;;;;;22.25;60.65;96328.94;2067331;28;20194;-59
2023/05/22 08:17:25;;;;;;;13.13;9.60;;;;;;;22.09;60.37;96329.56;2064164;28;20205;-59
2023/05/22 08:18:27;;;;;;;11.82;8.65;;;;;;;21.97;61.33;96336.91;2064407;28;20202;-57
2023/05/22 08:19:30;;;;;;;14.02;10.38;;;;;;;22.01;60.76;96332.16;2064147;28;20648;-58
2023/05/22 08:20:32;;;;;;;14.38;8.90;;;;;;;21.98;61.02;96330.63;2068126;28;20281;-59
2023/05/22 08:21:34;;;;;;;15.73;9.45;;;;;;;22.32;61.47;96324.72;2064319;28;20205;-57
2023/05/22 08:22:38;;;;;;;10.60;8.25;;;;;;;22.77;61.45;96331.00;2067251;28;20203;-58
2023/05/22 08:23:39;;;;;;;19.08;9.32;;;;;;;23.18;61.00;96335.84;2067906;28;20209;-58
2023/05/22 08:24:40;;;;;;;12.75;10.43;;;;;;;23.50;58.41;96334.41;2068366;28;20197;-59
2023/05/22 08:25:42;;;;;;;16.25;11.93;;;;;;;23.58;58.64;96331.78;2067778;28;20264;-58
2023/05/22 08:26:44;;;;;;;17.50;9.82;;;;;;;23.88;57.80;96318.94;2070431;28;20204;-58
2023/05/22 08:27:45;;;;;;;10.95;9.20;;;;;;;23.78;59.32;96326.22;2064939;28;20213;-57
2023/05/22 08:28:46;;;;;;;12.20;8.75;;;;;;;23.70;58.34;96321.69;2064718;28;20306;-59
2023/05/22 08:29:48;;;;;;;18.08;9.55;;;;;;;23.68;59.66;96322.84;2068137;28;20331;-58
2023/05/22 08:30:51;;;;;;;16.77;10.63;;;;;;;23.26;58.99;96319.94;2067187;28;20396;-58
2023/05/22 08:31:55;;;;;;;13.23;10.15;;;;;;;23.20;58.98;96325.03;2068465;28;20205;-57
2023/05/22 08:32:57;;;;;;;15.95;10.25;;;;;;;23.48;59.07;96325.75;2068243;28;20297;-59
2023/05/22 08:34:01;;;;;;;14.13;9.85;;;;;;;23.36;59.66;96327.00;2071234;28;20239;-58
2023/05/22 08:35:03;;;;;;;13.27;10.85;;;;;;;23.52;59.73;96319.09;2072430;28;20641;-58
2023/05/22 08:36:05;;;;;;;13.65;9.55;;;;;;;23.51;59.35;96314.75;2075449;28;20201;-59
2023/05/22 08:37:08;;;;;;;13.60;8.82;;;;;;;23.63;58.69;96318.00;2072070;28;20232;-58
2023/05/22 08:38:09;;;;;;;16.17;9.70;;;;;;;23.58;58.21;96323.78;2074044;28;20288;-58
2023/05/22 08:39:11;;;;;;;12.95;9.75;;;;;;;23.31;59.67;96316.78;2075275;28;20217;-58
2023/05/22 08:40:13;;;;;;;16.27;9.88;;;;;;;22.76;59.48;96299.22;2076864;28;20552;-58
2023/05/22 08:41:15;;;;;;;17.27;10.45;;;;;;;22.59;60.34;96311.50;2075818;28;20231;-58
2023/05/22 08:42:16;;;;;;;13.55;9.85;;;;;;;22.44;61.15;96320.03;2076283;28;20263;-58
2023/05/22 08:43:20;;;;;;;14.63;9.45;;;;;;;22.57;61.12;96314.34;2076018;28;20193;-58
2023/05/22 08:44:21;;;;;;;13.65;9.40;;;;;;;22.64;61.37;96312.75;2071763;28;20222;-58
2023/05/22 08:45:24;;;;;;;15.52;10.30;;;;;;;22.29;61.56;96317.00;2073441;28;20284;-58
2023/05/22 08:46:29;;;;;;;15.00;10.77;;;;;;;22.40;61.63;96309.84;2074247;28;20230;-59
2023/05/22 08:47:33;;;;;;;13.38;9.68;;;;;;;22.34;61.93;96317.41;2076969;28;20250;-58
2023/05/22 08:48:36;;;;;;;17.45;11.45;;;;;;;22.19;61.47;96318.91;2074996;28;20579;-57
2023/05/22 08:49:39;;;;;;;14.23;10.50;;;;;;;22.00;61.99;96319.84;2077422;28;20197;-58
2023/05/22 08:50:42;;;;;;;12.65;10.07;;;;;;;21.95;62.36;96307.00;2076930;28;20209;-59
2023/05/22 08:51:47;;;;;;;19.77;10.27;;;;;;;21.91;63.98;96316.25;2076200;28;20254;-58
2023/05/22 08:52:56;;;;;;;14.05;10.38;;;;;;;21.98;63.10;96303.22;2076117;28;20644;-59
2023/05/22 08:53:57;;;;;;;13.50;11.00;;;;;;;21.99;63.57;96315.50;2075672;28;20229;-59
2023/05/22 08:55:03;;;;;;;13.85;10.43;;;;;;;22.08;63.40;96313.78;2076348;28;20195;-58
2023/05/22 08:56:07;;;;;;;18.58;9.70;;;;;;;22.11;63.80;96318.81;2072319;28;20204;-58
2023/05/22 08:57:09;;;;;;;15.27;10.77;;;;;;;22.25;63.59;96312.97;2072569;28;20197;-58
2023/05/22 08:58:11;;;;;;;13.90;10.48;;;;;;;22.42;62.59;96314.00;2075906;28;20288;-58
2023/05/22 08:59:12;;;;;;;14.32;10.40;;;;;;;22.51;63.48;96314.94;2075115;28;20303;-58
2023/05/22 09:00:15;;;;;;;18.02;10.95;;;;;;;22.38;62.46;96317.16;2076867;28;20192;-58
2023/05/22 09:01:17;;;;;;;11.68;9.90;;;;;;;22.31;62.29;96315.06;2075866;28;20203;-58
2023/05/22 09:02:19;;;;;;;14.27;10.70;;;;;;;22.33;62.91;96318.41;2076019;28;20198;-58
2023/05/22 09:03:21;;;;;;;16.15;10.43;;;;;;;22.14;63.01;96314.03;2074356;28;20199;-58
2023/05/22 09:04:24;;;;;;;12.68;9.85;;;;;;;21.98;63.62;96314.69;2075639;28;20256;-58
2023/05/22 09:05:26;;;;;;;16.00;9.98;;;;;;;21.97;63.56;96315.66;2074961;28;20336;-58
2023/05/22 09:06:28;;;;;;;13.05;10.30;;;;;;;22.19;63.72;96318.91;2076012;28;20339;-58
2023/05/22 09:07:30;;;;;;;13.30;9.93;;;;;;;22.39;63.70;96316.16;2076052;28;20252;-58
2023/05/22 09:08:32;;;;;;;14.52;10.88;;;;;;;22.57;63.37;96318.84;2075165;28;20292;-59
2023/05/22 09:09:37;;;;;;;16.42;10.55;;;;;;;22.45;63.51;96321.72;2074986;28;20691;-58
2023/05/22 09:10:39;;;;;;;25.00;11.80;;;;;;;22.26;64.26;96317.31;2075562;28;20193;-58
2023/05/22 09:11:41;;;;;;;14.95;10.57;;;;;;;22.26;63.72;96312.00;2075911;28;20197;-58
2023/05/22 09:13:03;;;;;;;14.18;10.98;;;;;;;22.20;64.15;96323.22;2075905;28;20710;-59
2023/05/22 09:14:08;;;;;;;15.88;9.68;;;;;;;22.13;63.94;96322.16;2071027;28;20267;-58
2023/05/22 09:15:11;;;;;;;15.75;10.75;;;;;;;21.96;64.97;96319.28;2075745;28;20201;-58
2023/05/22 09:16:12;;;;;;;18.55;11.25;;;;;;;22.06;64.60;96311.28;2075668;28;20204;-58
2023/05/22 09:17:14;;;;;;;15.38;11.20;;;;;;;22.24;64.64;96311.31;2076064;28;20201;-58
2023/05/22 09:18:17;;;;;;;15.38;11.25;;;;;;;22.41;64.15;96327.47;2075306;28;20202;-58
2023/05/22 09:19:18;;;;;;;13.90;9.82;;;;;;;22.55;63.83;96315.47;2072681;28;20271;-58
2023/05/22 09:20:20;;;;;;;19.20;10.60;;;;;;;22.67;64.08;96314.28;2078256;28;20209;-58
2023/05/22 09:21:26;;;;;;;18.75;10.95;;;;;;;22.80;63.08;96324.53;2074506;28;20248;-58
2023/05/22 09:22:37;;;;;;;14.40;11.05;;;;;;;22.83;62.74;96321.56;2075964;28;20247;-58
2023/05/22 09:23:39;;;;;;;15.68;11.00;;;;;;;22.86;62.92;96321.25;2074580;28;20288;-58
2023/05/22 09:24:44;;;;;;;18.30;11.38;;;;;;;22.93;63.28;96318.81;2075800;28;20646;-58
2023/05/22 09:25:46;;;;;;;19.85;11.40;;;;;;;22.85;62.88;96319.56;2077933;28;20202;-58
2023/05/22 09:26:47;;;;;;;19.17;10.27;;;;;;;22.68;62.63;96318.59;2077056;28;20198;-59
2023/05/22 09:27:49;;;;;;;18.92;12.40;;;;;;;22.46;63.05;96326.03;2075091;28;20341;-58
2023/05/22 09:28:51;;;;;;;19.95;11.57;;;;;;;22.41;63.48;96325.66;2076698;28;21713;-58
2023/05/22 09:29:58;;;;;;;16.65;10.70;;;;;;;22.45;63.61;96324.38;2075484;28;20198;-59
2023/05/22 09:31:00;;;;;;;14.77;10.52;;;;;;;22.35;63.42;96323.56;2075811;28;20197;-58
2023/05/22 09:32:13;;;;;;;16.70;10.57;;;;;;;22.37;63.07;96323.44;2075583;28;20197;-58
2023/05/22 09:33:15;;;;;;;17.40;10.57;;;;;;;22.56;63.51;96314.50;2082505;28;20208;-58
2023/05/22 09:34:17;;;;;;;17.75;12.38;;;;;;;22.56;63.02;96319.81;2074844;28;20225;-59
2023/05/22 09:35:19;;;;;;;13.02;9.85;;;;;;;22.69;62.89;96314.97;2076136;28;20197;-58
2023/05/22 09:36:21;;;;;;;13.70;10.27;;;;;;;22.82;62.38;96315.41;2077234;28;20247;-58
2023/05/22 09:37:23;;;;;;;15.43;11.02;;;;;;;23.12;62.70;96315.97;2082813;28;20226;-58
2023/05/22 09:38:27;;;;;;;13.43;10.55;;;;;;;23.24;62.07;96315.75;2082358;28;20201;-59
2023/05/22 09:39:40;;;;;;;20.20;10.43;;;;;;;23.23;62.09;96311.41;2070990;28;20705;-59
2023/05/22 09:40:41;;;;;;;14.18;10.82;;;;;;;23.15;61.79;96312.19;2074906;28;20230;-59
2023/05/22 09:41:43;;;;;;;14.57;9.95;;;;;;;23.11;62.57;96310.81;2077123;28;20217;-59
2023/05/22 09:42:44;;;;;;;15.73;11.18;;;;;;;23.22;61.70;96307.91;2076273;28;20739;-58
2023/05/22 09:43:50;;;;;;;15.30;10.27;;;;;;;23.52;61.39;96312.94;2075117;28;20193;-58
2023/05/22 09:44:51;;;;;;;15.02;11.02;;;;;;;23.47;61.36;96308.91;2074764;28;20206;-58
2023/05/22 09:45:59;;;;;;;15.32;11.02;;;;;;;23.74;60.57;96306.22;2073733;28;20252;-59
2023/05/22 09:47:02;;;;;;;11.52;9.07;;;;;;;24.05;60.23;96308.38;2075104;28;20289;-58
2023/05/22 09:48:05;;;;;;;13.20;9.68;;;;;;;24.24;60.99;96310.78;2073130;28;20315;-59
2023/05/22 09:49:07;;;;;;;20.35;10.00;;;;;;;23.98;59.71;96302.03;2073056;28;20253;-58
2023/05/22 09:50:09;;;;;;;13.82;10.00;;;;;;;23.72;58.47;96309.06;2077453;28;20259;-58
2023/05/22 09:51:12;;;;;;;19.20;9.13;;;;;;;23.67;57.68;96297.19;2076744;28;20196;-58
2023/05/22 09:52:16;;;;;;;14.32;9.02;;;;;;;23.76;56.71;96307.72;2074832;28;20780;-58
2023/05/22 09:53:19;;;;;;;13.70;8.65;;;;;;;23.80;56.76;96305.59;2075102;28;20206;-59
2023/05/22 09:54:24;;;;;;;13.88;9.07;;;;;;;24.08;57.37;96306.22;2073636;28;20304;-58
2023/05/22 09:55:26;;;;;;;14.05;8.88;;;;;;;24.08;57.27;96305.41;2073711;28;20209;-58
2023/05/22 09:56:30;;;;;;;14.88;9.13;;;;;;;24.07;56.13;96306.38;2075329;28;20202;-58
2023/05/22 09:57:47;;;;;;;14.23;8.90;;;;;;;24.31;56.33;96297.63;2073368;28;20776;-59
2023/05/22 09:58:51;;;;;;;14.65;9.60;;;;;;;24.35;55.25;96306.97;2071136;28;20280;-58
2023/05/22 09:59:56;;;;;;;15.02;8.68;;;;;;;24.59;55.61;96311.53;2073185;28;20824;-58
2023/05/22 10:01:00;;;;;;;21.80;8.88;;;;;;;24.61;54.23;96311.38;2073373;28;20317;-58
2023/05/22 10:02:02;;;;;;;12.95;7.80;;;;;;;24.94;52.93;96312.25;2071679;28;20201;-59
2023/05/22 10:03:14;;;;;;;12.25;8.13;;;;;;;25.42;53.87;96308.91;2075862;28;20615;-58
2023/05/22 10:04:17;;;;;;;12.60;8.32;;;;;;;25.62;54.22;96308.53;2074895;28;20225;-59
2023/05/22 10:05:20;;;;;;;13.38;8.23;;;;;;;25.89;53.52;96315.28;2082692;28;20211;-58
2023/05/22 10:06:24;;;;;;;13.77;7.75;;;;;;;26.13;52.68;96303.69;2084011;28;20235;-59
2023/05/22 10:07:31;;;;;;;13.40;8.38;;;;;;;26.11;51.88;96308.38;2077360;28;20235;-59
2023/05/22 10:08:40;;;;;;;19.48;8.18;;;;;;;26.28;51.50;96301.09;2076338;28;20896;-58
2023/05/22 10:09:49;;;;;;;13.38;8.73;;;;;;;26.15;50.56;96303.50;2073874;28;20234;-59
2023/05/22 10:10:51;;;;;;;9.75;7.68;;;;;;;26.32;52.00;96305.09;2075484;28;20209;-60
2023/05/22 10:11:57;;;;;;;11.70;8.48;;;;;;;26.18;52.40;96311.19;2075582;28;20280;-59
2023/05/22 10:13:02;;;;;;;14.13;8.93;;;;;;;26.26;52.12;96310.31;2075102;28;20921;-59
2023/05/22 10:14:04;;;;;;;11.15;8.10;;;;;;;26.49;51.94;96308.50;2075363;28;20236;-59
2023/05/22 10:15:08;;;;;;;12.30;8.50;;;;;;;26.45;52.29;96306.34;2075683;28;20649;-60
2023/05/22 10:16:10;;;;;;;14.70;8.52;;;;;;;26.16;53.15;96305.19;2083800;28;20744;-59
2023/05/22 10:17:15;;;;;;;11.63;7.82;;;;;;;25.47;52.91;96303.03;2078387;28;20299;-60
2023/05/22 10:18:17;;;;;;;10.80;6.63;;;;;;;26.07;51.89;96309.75;2071607;28;20509;-59
2023/05/22 10:19:19;;;;;;;17.48;8.68;;;;;;;26.11;52.36;96310.22;2070985;28;20217;-59
2023/05/22 10:20:21;;;;;;;13.18;8.25;;;;;;;25.90;51.33;96307.09;2071586;28;20201;-59
2023/05/22 10:21:24;;;;;;;10.30;8.07;;;;;;;25.74;51.53;96301.81;2074983;28;20260;-59
2023/05/22 10:22:27;;;;;;;14.02;8.57;;;;;;;25.53;53.07;96307.72;2076121;28;20208;-60
2023/05/22 10:23:29;;;;;;;12.77;8.50;;;;;;;25.79;52.96;96312.81;2075088;28;20713;-60
2023/05/22 10:24:31;;;;;;;14.07;8.82;;;;;;;26.11;53.38;96300.34;2074572;28;20217;-60
2023/05/22 10:25:34;;;;;;;14.20;8.95;;;;;;;26.14;53.47;96305.34;2075988;28;20721;-60
2023/05/22 10:26:37;;;;;;;14.65;8.02;;;;;;;26.11;53.06;96310.22;2070923;28;20523;-60
2023/05/22 10:27:39;;;;;;;11.05;8.13;;;;;;;25.98;54.29;96308.91;2075113;28;20212;-59
2023/05/22 10:28:45;;;;;;;13.38;8.82;;;;;;;26.10;54.20;96300.53;2073790;28;20229;-60
2023/05/22 10:29:57;;;;;;;19.85;8.73;;;;;;;25.95;53.44;96308.41;2073785;28;20193;-59
2023/05/22 10:31:13;;;;;;;11.70;8.27;;;;;;;25.86;53.74;96299.59;2074515;28;20196;-60
2023/05/22 10:32:34;;;;;;;13.35;8.18;;;;;;;26.39;53.86;96302.53;2071073;28;20725;-60
2023/05/22 10:33:42;;;;;;;11.57;7.97;;;;;;;26.55;51.79;96301.59;2072452;28;20663;-59
2023/05/22 10:35:13;;;;;;;9.95;7.57;;;;;;;26.02;53.23;96296.03;2073518;28;20194;-60
2023/05/22 10:36:52;;;;;;;11.23;8.18;;;;;;;25.96;54.04;96294.03;2071374;28;20201;-60
2023/05/22 10:38:15;;;;;;;17.10;8.30;;;;;;;26.22;52.23;96296.44;2074423;28;20211;-59
2023/05/22 10:39:50;;;;;;;17.02;8.32;;;;;;;26.31;52.84;96291.88;2073868;28;20217;-60
2023/05/22 10:40:54;;;;;;;11.00;8.23;;;;;;;26.53;53.18;96290.25;2073887;28;20201;-60
2023/05/22 10:41:55;;;;;;;9.45;7.20;;;;;;;26.61;52.96;96294.72;2074816;28;20320;-60
2023/05/22 10:43:02;;;;;;;13.23;8.65;;;;;;;26.87;52.63;96292.53;2074397;28;20229;-60
2023/05/22 10:44:04;;;;;;;11.10;8.35;;;;;;;27.04;53.46;96295.09;2072732;28;20225;-60
2023/05/22 10:45:06;;;;;;;15.50;9.32;;;;;;;27.33;53.13;96288.94;2070447;28;20201;-60
2023/05/22 10:46:11;;;;;;;25.23;9.35;;;;;;;27.46;53.28;96288.34;2072162;28;20198;-60
2023/05/22 10:47:13;;;;;;;27.65;9.15;;;;;;;27.27;52.73;96287.00;2075884;28;20202;-60
2023/05/22 10:48:20;;;;;;;17.33;9.82;;;;;;;27.23;51.51;96284.88;2074464;28;20197;-60
2023/05/22 10:49:22;;;;;;;12.10;8.05;;;;;;;27.29;51.02;96286.84;2069481;28;20224;-60
2023/05/22 10:50:24;;;;;;;15.63;8.32;;;;;;;27.60;49.77;96292.03;2074045;28;20200;-60
2023/05/22 10:51:25;;;;;;;14.07;8.05;;;;;;;27.88;50.99;96282.53;2074600;28;20205;-60
2023/05/22 10:52:27;;;;;;;11.90;8.60;;;;;;;28.06;49.45;96285.69;2071009;28;20252;-60
2023/05/22 10:53:31;;;;;;;14.60;8.05;;;;;;;27.75;48.97;96285.88;2071446;28;20193;-60
2023/05/22 10:54:43;;;;;;;11.57;8.45;;;;;;;28.15;49.72;96279.19;2075541;28;20263;-60
2023/05/22 10:55:52;;;;;;;14.55;7.45;;;;;;;28.22;48.25;96275.75;2074298;28;20703;-59
2023/05/22 10:57:09;;;;;;;11.80;7.17;;;;;;;28.43;46.91;96281.16;2074993;28;20256;-60
2023/05/22 10:58:15;;;;;;;13.07;8.73;;;;;;;28.51;48.76;96282.88;2075612;28;20618;-60
2023/05/22 10:59:32;;;;;;;10.47;7.40;;;;;;;28.58;48.07;96282.94;2073312;28;20561;-60
2023/05/22 11:00:36;;;;;;;12.02;8.65;;;;;;;28.77;46.96;96277.00;2073100;28;20454;-61
2023/05/22 11:01:38;;;;;;;10.60;7.53;;;;;;;28.54;47.95;96282.50;2073872;28;20325;-60
2023/05/22 11:02:44;;;;;;;17.77;7.90;;;;;;;28.56;47.67;96279.66;2073130;28;20450;-60
2023/05/22 11:03:59;;;;;;;14.33;8.07;;;;;;;28.89;47.11;96284.53;2072298;28;21005;-60
2023/05/22 11:05:15;;;;;;;15.60;8.90;;;;;;;28.65;46.74;96275.81;2072380;28;20901;-60
2023/05/22 11:06:42;;;;;;;11.70;7.97;;;;;;;28.14;48.31;96277.53;2075064;28;20489;-58
2023/05/22 11:07:43;;;;;;;12.70;8.10;;;;;;;28.46;48.13;96267.34;2071299;28;20423;-58
2023/05/22 11:08:47;;;;;;;11.97;7.70;;;;;;;28.87;47.11;96279.34;2070667;28;20458;-58
2023/05/22 11:09:59;;;;;;;19.23;8.60;;;;;;;28.22;46.69;96276.56;2076221;28;21030;-58
2023/05/22 11:11:11;;;;;;;10.30;8.33;;;;;;;27.99;47.93;96276.69;2073218;28;20517;-58
2023/05/22 11:12:22;;;;;;;12.63;7.90;;;;;;;28.88;48.80;96285.56;2073620;28;20422;-58
2023/05/22 11:13:26;;;;;;;12.23;7.83;;;;;;;28.82;48.29;96279.09;2074418;28;20431;-58
2023/05/22 11:14:29;;;;;;;10.73;6.83;;;;;;;29.03;46.77;96275.56;2075739;28;20466;-58
2023/05/22 11:15:31;;;;;;;15.23;8.83;;;;;;;29.13;46.94;96281.41;2074432;28;20446;-58
2023/05/22 11:16:33;;;;;;;10.17;8.07;;;;;;;28.99;46.14;96266.22;2073002;28;20431;-58
2023/05/22 11:17:37;;;;;;;9.40;6.60;;;;;;;29.10;46.18;96273.75;2074231;28;20500;-58
2023/05/22 11:18:39;;;;;;;15.70;8.30;;;;;;;29.28;46.06;96267.06;2072917;28;20427;-58
2023/05/22 11:19:41;;;;;;;12.47;8.23;;;;;;;29.24;44.72;96268.47;2075810;28;20473;-58
2023/05/22 11:20:43;;;;;;;9.43;6.90;;;;;;;28.99;45.58;96264.34;2075450;28;20474;-58
2023/05/22 11:21:45;;;;;;;13.30;7.37;;;;;;;29.07;45.84;96270.63;2071164;28;20974;-58
2023/05/22 11:22:50;;;;;;;8.07;6.70;;;;;;;29.17;45.61;96266.56;2073004;28;20430;-58
2023/05/22 11:23:52;;;;;;;9.90;7.27;;;;;;;28.62;45.90;96268.13;2075338;28;20550;-58
2023/05/22 11:24:53;;;;;;;15.60;7.90;;;;;;;28.62;47.22;96268.13;2074679;28;20454;-58
2023/05/22 11:25:55;;;;;;;12.10;7.30;;;;;;;28.89;46.89;96276.47;2075107;28;21111;-57
2023/05/22 11:27:03;;;;;;;9.60;7.83;;;;;;;29.09;46.01;96273.94;2070555;28;20454;-58
2023/05/22 11:28:06;;;;;;;10.63;6.60;;;;;;;29.06;44.91;96274.34;2079893;28;20581;-58
2023/05/22 11:29:08;;;;;;;11.00;7.27;;;;;;;29.47;46.06;96269.09;2077780;28;20454;-58
2023/05/22 11:30:10;;;;;;;10.97;7.73;;;;;;;29.24;45.91;96266.63;2074488;28;20431;-58
2023/05/22 11:31:13;;;;;;;12.37;7.47;;;;;;;29.29;46.19;96269.59;2072803;28;20434;-58
2023/05/22 11:32:19;;;;;;;11.70;7.30;;;;;;;29.58;45.96;96262.31;2070807;28;20431;-58
2023/05/22 11:33:22;;;;;;;10.73;6.57;;;;;;;30.00;44.69;96262.34;2073165;28;20431;-57
2023/05/22 11:34:25;;;;;;;18.83;7.33;;;;;;;29.23;44.12;96258.75;2074014;28;20945;-57
2023/05/22 11:35:27;;;;;;;13.23;6.77;;;;;;;29.45;44.39;96260.38;2074744;28;20426;-58
2023/05/22 11:36:28;;;;;;;10.53;7.67;;;;;;;29.54;45.08;96261.06;2073290;28;20480;-60
2023/05/22 11:37:31;;;;;;;8.20;6.60;;;;;;;29.40;45.60;96243.19;2072830;28;20768;-60
2023/05/22 11:38:33;;;;;;;9.73;7.60;;;;;;;29.95;44.32;96256.75;2076998;28;20929;-60
2023/05/22 11:39:35;;;;;;;12.13;7.33;;;;;;;29.94;45.20;96255.91;2072633;28;20438;-61
2023/05/22 11:40:36;;;;;;;20.47;8.03;;;;;;;29.46;43.97;96262.03;2073140;28;20465;-60